Time;durP1;ratioP1;P1;durP2;ratioP2;P2;SDS_P1;SDS_P2;PMS_P1;PMS_P2;Temp;Humidity;BMP_temperature;BMP_pressure;BME280_temperature;BME280_humidity;BME280_pressure;Samples;Min_cycle;Max_cycle;Signal;HPM_P1;HPM_P2
2022/11/14 00:02:10;;;;;;;13.52;8.88;;;8.60;99.90;;;;;;5013190;28;20208;-66
2022/11/14 00:05:42;;;;;;;14.05;9.32;;;8.60;99.90;;;;;;5012932;28;20389;-65
2022/11/14 00:09:05;;;;;;;15.93;9.60;;;8.60;99.90;;;;;;5012885;28;20049;-65
2022/11/14 00:12:27;;;;;;;13.15;9.35;;;8.50;99.90;;;;;;5013003;28;20037;-65
2022/11/14 00:15:54;;;;;;;32.80;17.02;;;8.50;99.90;;;;;;5012599;28;20060;-65
2022/11/14 00:19:16;;;;;;;19.00;11.80;;;8.50;99.90;;;;;;5012818;28;20041;-66
2022/11/14 00:22:39;;;;;;;17.92;10.25;;;8.50;99.90;;;;;;5012884;28;20045;-65
2022/11/14 00:26:01;;;;;;;16.95;10.25;;;8.60;99.90;;;;;;5012742;28;20056;-66
2022/11/14 00:29:23;;;;;;;;;;;8.70;99.90;;;;;;5012599;28;20157;-66
2022/11/14 00:32:46;;;;;;;14.20;9.52;;;8.70;99.90;;;;;;5012545;28;20391;-66
2022/11/14 00:36:09;;;;;;;17.65;10.07;;;8.80;99.90;;;;;;5012567;28;20049;-66
2022/11/14 00:39:33;;;;;;;17.63;11.20;;;8.90;99.90;;;;;;5012387;28;20041;-66
2022/11/14 00:42:55;;;;;;;16.52;11.30;;;8.80;99.90;;;;;;5011629;28;20066;-66
2022/11/14 00:46:18;;;;;;;16.90;10.52;;;8.80;99.90;;;;;;5012338;28;20068;-66
2022/11/14 00:49:41;;;;;;;17.17;11.82;;;8.70;99.90;;;;;;5011962;28;20061;-66
2022/11/14 00:53:04;;;;;;;20.92;13.02;;;8.60;99.90;;;;;;5012408;28;20048;-66
2022/11/14 00:56:27;;;;;;;15.25;10.57;;;8.60;99.90;;;;;;5012036;28;20068;-66
2022/11/14 00:59:49;;;;;;;13.70;9.45;;;8.60;99.90;;;;;;5011760;28;20045;-65
2022/11/14 01:03:13;;;;;;;13.30;9.30;;;8.70;99.90;;;;;;5011966;28;20058;-66
2022/11/14 01:06:36;;;;;;;12.77;8.82;;;8.70;99.90;;;;;;5012139;28;20496;-66
2022/11/14 01:09:59;;;;;;;13.80;9.43;;;8.70;99.90;;;;;;5011957;28;20037;-65
2022/11/14 01:13:22;;;;;;;18.35;11.55;;;8.70;99.90;;;;;;5011638;28;20048;-66
2022/11/14 01:16:44;;;;;;;15.18;10.40;;;8.80;99.90;;;;;;5011787;28;20064;-65
2022/11/14 01:20:08;;;;;;;17.73;11.43;;;8.80;99.90;;;;;;5011924;28;20060;-65
2022/11/14 01:23:31;;;;;;;13.25;9.68;;;8.80;99.90;;;;;;5011419;28;20057;-66
2022/11/14 01:26:55;;;;;;;12.25;8.45;;;8.80;99.90;;;;;;5011638;28;20037;-66
2022/11/14 01:30:18;;;;;;;11.90;8.50;;;8.80;99.90;;;;;;5011576;28;20057;-66
2022/11/14 01:33:41;;;;;;;15.27;10.95;;;8.70;99.90;;;;;;5011468;28;20049;-65
2022/11/14 01:37:04;;;;;;;15.80;10.95;;;8.80;99.90;;;;;;5011753;28;20117;-65
2022/11/14 01:40:27;;;;;;;;;;;8.80;99.90;;;;;;5011978;28;20056;-66
2022/11/14 01:43:50;;;;;;;17.67;11.63;;;8.70;99.90;;;;;;5011316;28;19948;-65
2022/11/14 01:47:17;;;;;;;16.33;10.80;;;8.70;99.90;;;;;;5011400;28;20060;-65
2022/11/14 01:50:40;;;;;;;17.17;11.48;;;8.70;99.90;;;;;;5011295;28;20049;-66
2022/11/14 01:54:06;;;;;;;;;;;8.70;99.90;;;;;;5010341;28;20045;-66
2022/11/14 01:57:41;;;;;;;17.20;10.93;;;8.60;99.90;;;;;;5015236;28;19921;-64
2022/11/14 02:01:03;;;;;;;16.48;11.38;;;8.70;99.90;;;;;;5015422;28;20053;-66
2022/11/14 02:04:34;;;;;;;18.77;11.40;;;8.70;99.90;;;;;;5015060;28;20049;-66
2022/11/14 02:07:57;;;;;;;18.67;12.27;;;8.70;99.90;;;;;;5015433;28;20041;-67
2022/11/14 02:11:20;;;;;;;15.75;11.23;;;8.60;99.90;;;;;;5015087;28;20033;-66
2022/11/14 02:14:45;;;;;;;16.83;11.38;;;8.60;99.90;;;;;;5014749;28;20045;-66
2022/11/14 02:18:07;;;;;;;18.38;12.48;;;8.60;99.90;;;;;;5015231;28;20037;-66
2022/11/14 02:21:31;;;;;;;17.42;12.30;;;8.60;99.90;;;;;;5015279;28;20037;-65
2022/11/14 02:24:55;;;;;;;17.98;12.25;;;8.50;99.90;;;;;;5014875;28;20389;-66
2022/11/14 02:28:19;;;;;;;18.00;12.20;;;8.50;99.90;;;;;;5014918;28;20400;-65
2022/11/14 02:31:42;;;;;;;18.33;11.93;;;8.50;99.90;;;;;;5014759;28;20065;-66
2022/11/14 02:35:05;;;;;;;17.98;13.13;;;8.50;99.90;;;;;;5014586;28;20044;-66
2022/11/14 02:38:28;;;;;;;22.90;13.13;;;8.40;99.90;;;;;;5014503;28;20053;-66
2022/11/14 02:41:52;;;;;;;19.67;13.05;;;8.30;99.90;;;;;;5014674;28;20045;-64
2022/11/14 02:45:15;;;;;;;19.65;13.45;;;8.30;99.90;;;;;;5014387;28;20061;-66
2022/11/14 02:48:37;;;;;;;20.92;13.25;;;8.40;99.90;;;;;;5014605;28;20052;-67
2022/11/14 02:52:00;;;;;;;20.75;13.52;;;8.40;99.90;;;;;;5015001;28;20041;-66
2022/11/14 02:55:22;;;;;;;20.08;12.68;;;8.40;99.90;;;;;;5013932;28;20044;-66
2022/11/14 02:58:45;;;;;;;21.15;13.65;;;8.40;99.90;;;;;;5014066;28;20523;-66
2022/11/14 03:02:07;;;;;;;;;;;8.40;99.90;;;;;;5014818;28;20195;-66
2022/11/14 03:05:30;;;;;;;18.85;11.43;;;8.40;99.90;;;;;;5013475;28;19917;-66
2022/11/14 03:08:54;;;;;;;15.63;9.98;;;8.40;99.90;;;;;;5013150;28;20049;-65
2022/11/14 03:12:17;;;;;;;15.40;10.02;;;8.40;99.90;;;;;;5014112;28;20048;-65
2022/11/14 03:15:40;;;;;;;16.05;10.77;;;8.40;99.90;;;;;;5013739;28;20045;-65
2022/11/14 03:19:03;;;;;;;15.75;10.43;;;8.50;99.90;;;;;;5014103;28;20045;-65
2022/11/14 03:22:27;;;;;;;19.27;10.48;;;8.50;99.90;;;;;;5013678;28;20385;-65
2022/11/14 03:25:50;;;;;;;14.65;9.85;;;8.50;99.90;;;;;;5013530;28;20037;-65
2022/11/14 03:29:12;;;;;;;18.83;12.57;;;8.40;99.90;;;;;;5013459;28;20057;-65
2022/11/14 03:32:36;;;;;;;22.67;13.77;;;8.30;99.90;;;;;;5013843;28;20045;-65
2022/11/14 03:36:00;;;;;;;25.75;15.77;;;8.20;99.90;;;;;;5013385;28;20045;-66
2022/11/14 03:39:23;;;;;;;28.40;16.45;;;8.00;99.90;;;;;;5013719;28;20041;-65
2022/11/14 03:42:45;;;;;;;25.35;15.00;;;7.90;99.90;;;;;;5013828;28;20045;-65
2022/11/14 03:46:08;;;;;;;23.08;14.25;;;7.80;99.90;;;;;;5013646;28;20044;-66
2022/11/14 03:49:30;;;;;;;;;;;7.80;99.90;;;;;;5013853;28;20041;-65
2022/11/14 03:52:52;;;;;;;19.30;13.30;;;7.70;99.90;;;;;;5013122;28;19921;-65
2022/11/14 03:56:14;;;;;;;20.20;13.75;;;7.70;99.90;;;;;;5013172;28;20071;-65
2022/11/14 03:59:37;;;;;;;19.60;13.35;;;7.70;99.90;;;;;;5013202;28;20049;-66
2022/11/14 04:02:59;;;;;;;20.88;13.57;;;7.70;99.90;;;;;;5013082;28;20045;-66
2022/11/14 04:06:21;;;;;;;19.77;12.73;;;7.70;99.90;;;;;;5013132;28;20055;-66
2022/11/14 04:09:46;;;;;;;23.15;13.25;;;7.70;99.90;;;;;;5012995;28;20045;-66
2022/11/14 04:13:08;;;;;;;20.88;14.10;;;7.80;99.90;;;;;;5013103;28;20045;-65
2022/11/14 04:16:32;;;;;;;24.88;14.95;;;7.80;99.90;;;;;;5012806;28;20049;-65
2022/11/14 04:19:54;;;;;;;23.63;14.70;;;7.80;99.90;;;;;;5012735;28;20521;-65
2022/11/14 04:23:18;;;;;;;22.70;14.80;;;7.80;99.90;;;;;;5012726;28;20053;-65
2022/11/14 04:26:41;;;;;;;24.60;16.23;;;7.80;99.90;;;;;;5012494;28;20519;-66
2022/11/14 04:30:04;;;;;;;22.27;14.13;;;7.90;99.90;;;;;;5012163;28;20504;-66
2022/11/14 04:33:27;;;;;;;24.63;15.25;;;7.90;99.90;;;;;;5012204;28;20044;-65
2022/11/14 04:36:50;;;;;;;24.75;15.25;;;8.00;99.90;;;;;;5012186;28;20053;-65
2022/11/14 04:40:13;;;;;;;23.35;15.13;;;8.10;99.90;;;;;;5012574;28;20041;-65
2022/11/14 04:43:37;;;;;;;24.60;14.93;;;8.10;99.90;;;;;;5012333;28;20052;-65
2022/11/14 04:47:00;;;;;;;25.30;15.02;;;8.20;99.90;;;;;;5011884;28;20056;-65
2022/11/14 04:50:22;;;;;;;26.73;16.80;;;8.20;99.90;;;;;;5012475;28;20041;-66
2022/11/14 04:53:46;;;;;;;26.70;17.73;;;8.20;99.90;;;;;;5011727;28;20048;-65
2022/11/14 04:57:09;;;;;;;27.92;17.00;;;8.20;99.90;;;;;;5012707;28;20057;-65
2022/11/14 05:00:32;;;;;;;25.67;16.65;;;8.20;99.90;;;;;;5011990;28;20053;-65
2022/11/14 05:03:55;;;;;;;25.40;16.20;;;8.20;99.90;;;;;;5011891;28;20413;-65
2022/11/14 05:07:18;;;;;;;23.45;13.10;;;8.30;99.90;;;;;;5012123;28;20045;-66
2022/11/14 05:10:45;;;;;;;18.08;11.77;;;8.20;99.90;;;;;;5012122;28;20496;-65
2022/11/14 05:14:08;;;;;;;20.90;12.32;;;8.10;99.90;;;;;;5011587;28;20048;-66
2022/11/14 05:17:30;;;;;;;21.35;13.23;;;8.20;99.90;;;;;;5011893;28;20508;-65
2022/11/14 05:20:57;;;;;;;20.13;11.88;;;8.20;99.90;;;;;;5011543;28;20045;-66
2022/11/14 05:24:22;;;;;;;20.83;12.07;;;8.20;99.90;;;;;;5011284;28;20037;-65
2022/11/14 05:27:45;;;;;;;20.73;12.30;;;8.30;99.90;;;;;;5011602;28;20057;-65
2022/11/14 05:31:11;;;;;;;21.00;11.98;;;8.30;99.90;;;;;;5011609;28;20385;-65
2022/11/14 05:34:33;;;;;;;18.25;12.13;;;8.30;99.90;;;;;;5011495;28;20104;-65
2022/11/14 05:38:00;;;;;;;21.23;13.15;;;8.30;99.90;;;;;;5011859;28;20037;-65
2022/11/14 05:41:23;;;;;;;22.52;13.20;;;8.20;99.90;;;;;;5011753;28;20129;-66
2022/11/14 05:44:45;;;;;;;22.15;14.30;;;8.20;99.90;;;;;;5012056;28;20037;-66
2022/11/14 05:48:07;;;;;;;23.67;14.57;;;8.20;99.90;;;;;;5011470;28;20045;-66
2022/11/14 05:51:29;;;;;;;;;;;8.20;99.90;;;;;;5011748;28;20049;-66
2022/11/14 05:54:52;;;;;;;25.85;15.48;;;8.30;99.90;;;;;;5011092;28;20368;-66
2022/11/14 05:58:15;;;;;;;24.73;15.48;;;8.30;99.90;;;;;;5011729;28;20045;-66
2022/11/14 06:01:38;;;;;;;24.17;16.10;;;8.30;99.90;;;;;;5011658;28;20052;-65
2022/11/14 06:05:01;;;;;;;27.45;16.48;;;8.30;99.90;;;;;;5011297;28;20048;-65
2022/11/14 06:08:23;;;;;;;;;;;8.20;99.90;;;;;;5012169;28;20049;-65
2022/11/14 06:11:46;;;;;;;25.90;16.17;;;8.10;99.90;;;;;;5011599;28;19925;-66
2022/11/14 06:15:09;;;;;;;25.27;14.25;;;8.00;99.90;;;;;;5010843;28;20053;-66
2022/11/14 06:18:33;;;;;;;23.30;14.70;;;8.00;99.90;;;;;;5011758;28;20057;-66
2022/11/14 06:21:55;;;;;;;22.45;14.68;;;7.90;99.90;;;;;;5011699;28;20499;-66
2022/11/14 06:25:18;;;;;;;23.15;14.88;;;7.80;99.90;;;;;;5010768;28;20052;-66
2022/11/14 06:28:40;;;;;;;23.27;14.57;;;7.80;99.90;;;;;;5011338;28;20045;-66
2022/11/14 06:32:03;;;;;;;;;;;7.80;99.90;;;;;;5011632;28;20053;-65
2022/11/14 06:35:27;;;;;;;30.85;17.55;;;7.80;99.90;;;;;;5010116;28;19989;-65
2022/11/14 06:38:51;;;;;;;29.90;18.30;;;7.80;99.90;;;;;;5011228;28;20049;-66
2022/11/14 06:42:14;;;;;;;24.58;16.77;;;7.90;99.90;;;;;;5013253;28;20041;-66
2022/11/14 06:45:37;;;;;;;25.85;16.95;;;8.00;99.90;;;;;;5014969;28;20053;-65
2022/11/14 06:49:01;;;;;;;24.65;16.02;;;8.10;99.90;;;;;;5014402;28;20401;-65
2022/11/14 06:52:25;;;;;;;26.83;13.82;;;8.20;99.90;;;;;;5014528;28;20386;-66
2022/11/14 06:56:02;;;;;;;22.38;13.60;;;8.20;99.90;;;;;;5014184;28;20045;-66
2022/11/14 06:59:26;;;;;;;23.25;14.02;;;8.30;99.90;;;;;;5014183;28;20037;-65
2022/11/14 07:02:50;;;;;;;33.45;14.05;;;8.40;99.90;;;;;;5014216;28;20052;-65
2022/11/14 07:06:14;;;;;;;;;;;8.40;99.90;;;;;;5022703;28;20049;-66
2022/11/14 07:09:37;;;;;;;25.38;14.30;;;8.40;99.90;;;;;;5014125;28;19916;-66
2022/11/14 07:13:00;;;;;;;22.10;14.60;;;8.50;99.90;;;;;;5012990;28;20045;-66
2022/11/14 07:16:23;;;;;;;;;;;8.20;99.90;;;;;;5012418;28;20040;-65
2022/11/14 07:19:46;;;;;;;24.85;15.65;;;8.30;99.90;;;;;;4994452;28;19921;-65
2022/11/14 07:23:09;;;;;;;22.73;14.25;;;8.50;99.90;;;;;;4993908;28;20057;-66
2022/11/14 07:26:32;;;;;;;24.65;14.23;;;8.70;99.90;;;;;;5004361;28;20515;-65
2022/11/14 07:29:57;;;;;;;23.70;13.35;;;8.70;99.90;;;;;;5012112;28;20041;-66
2022/11/14 07:33:19;;;;;;;18.33;12.65;;;8.80;99.90;;;;;;5007989;28;20041;-65
2022/11/14 07:36:44;;;;;;;22.02;14.95;;;9.10;99.90;;;;;;5012052;28;20037;-65
2022/11/14 07:40:07;;;;;;;22.83;13.65;;;9.40;99.90;;;;;;5012811;28;20045;-66
2022/11/14 07:43:31;;;;;;;21.27;13.98;;;9.60;99.90;;;;;;5013087;28;20045;-65
2022/11/14 07:46:53;;;;;;;20.77;14.05;;;9.80;99.90;;;;;;5013550;28;20057;-65
2022/11/14 07:50:17;;;;;;;20.27;13.52;;;10.00;99.90;;;;;;5017285;28;20041;-63
2022/11/14 07:53:41;;;;;;;20.17;13.23;;;10.00;99.90;;;;;;5015972;28;20049;-64
2022/11/14 07:57:04;;;;;;;19.80;13.52;;;10.00;99.90;;;;;;5011354;28;20037;-65
2022/11/14 08:00:27;;;;;;;18.75;12.95;;;10.20;99.90;;;;;;5019937;28;20033;-63
2022/11/14 08:03:49;;;;;;;19.70;12.52;;;10.40;99.90;;;;;;5012096;28;20037;-67
2022/11/14 08:07:11;;;;;;;;;;;10.50;99.90;;;;;;4994425;28;20057;-66
2022/11/14 08:10:34;;;;;;;22.75;14.38;;;10.80;99.90;;;;;;4993738;28;19919;-66
2022/11/14 08:13:56;;;;;;;19.88;14.32;;;11.10;99.90;;;;;;5008502;28;20049;-66
2022/11/14 08:17:21;;;;;;;20.90;13.80;;;11.30;99.90;;;;;;4993215;28;20045;-66
2022/11/14 08:20:44;;;;;;;23.15;16.35;;;11.60;99.90;;;;;;5007204;28;20049;-67
2022/11/14 08:24:07;;;;;;;31.52;16.08;;;11.90;99.90;;;;;;5011284;28;20393;-67
2022/11/14 08:27:30;;;;;;;21.10;13.40;;;12.40;99.90;;;;;;5012259;28;20052;-66
2022/11/14 08:31:00;;;;;;;15.32;11.10;;;12.80;99.90;;;;;;5012196;28;20056;-66
2022/11/14 08:34:23;;;;;;;19.52;13.27;;;13.10;99.90;;;;;;5011764;28;20044;-66
2022/11/14 08:37:46;;;;;;;23.33;13.52;;;13.50;99.90;;;;;;4999658;28;20049;-66
2022/11/14 08:41:09;;;;;;;20.42;13.20;;;13.60;99.90;;;;;;5011310;28;20539;-66
2022/11/14 08:44:31;;;;;;;16.40;12.32;;;13.70;99.90;;;;;;5009169;28;20531;-66
2022/11/14 08:47:55;;;;;;;17.70;11.85;;;13.70;99.90;;;;;;4992752;28;20038;-66
2022/11/14 08:51:20;;;;;;;18.23;12.80;;;13.50;99.90;;;;;;4992987;28;20386;-66
2022/11/14 08:54:43;;;;;;;17.13;12.20;;;13.70;99.90;;;;;;5007832;28;20049;-66
2022/11/14 08:58:05;;;;;;;21.38;14.48;;;13.70;99.90;;;;;;4998091;28;20052;-66
2022/11/14 09:01:28;;;;;;;18.88;12.55;;;13.50;99.90;;;;;;5011110;28;20052;-65
2022/11/14 09:04:51;;;;;;;17.00;11.90;;;12.70;99.90;;;;;;5010422;28;20041;-67
2022/11/14 09:08:15;;;;;;;16.83;11.32;;;13.10;99.90;;;;;;5011637;28;20110;-66
2022/11/14 09:11:37;;;;;;;17.63;11.45;;;13.60;99.90;;;;;;5010735;28;20037;-66
2022/11/14 09:15:00;;;;;;;19.30;12.02;;;14.20;99.90;;;;;;5006729;28;20045;-66
2022/11/14 09:18:23;;;;;;;28.85;16.90;;;14.40;99.90;;;;;;5004425;28;20049;-66
2022/11/14 09:21:45;;;;;;;;;;;14.90;99.90;;;;;;5005365;28;20053;-66
2022/11/14 09:25:08;;;;;;;19.58;12.05;;;15.00;99.90;;;;;;5008322;28;19944;-66
2022/11/14 09:28:32;;;;;;;17.20;12.23;;;14.00;99.90;;;;;;5009887;28;20045;-66
2022/11/14 09:31:56;;;;;;;17.63;12.02;;;12.80;99.90;;;;;;5009784;28;20496;-66
2022/11/14 09:35:18;;;;;;;20.33;14.00;;;13.20;99.90;;;;;;4998852;28;20040;-66
2022/11/14 09:38:43;;;;;;;18.40;12.77;;;12.60;99.90;;;;;;5009530;28;20497;-66
2022/11/14 09:42:22;;;;;;;18.58;13.40;;;13.30;99.90;;;;;;5019711;28;20146;-66
2022/11/14 09:45:49;;;;;;;16.83;12.52;;;14.00;99.90;;;;;;5010555;28;20036;-66
2022/11/14 09:49:37;;;;;;;16.08;12.35;;;14.40;99.90;;;;;;5018528;28;20487;-66
2022/11/14 09:53:06;;;;;;;17.95;11.95;;;15.00;99.90;;;;;;5018227;28;20036;-66
2022/11/14 09:56:30;;;;;;;14.85;9.82;;;15.80;99.90;;;;;;5016671;28;20041;-66
2022/11/14 09:59:55;;;;;;;15.55;8.55;;;16.90;99.90;;;;;;5009443;28;20044;-67
2022/11/14 10:03:36;;;;;;;10.98;7.65;;;20.50;99.90;;;;;;5018222;28;20045;-67
2022/11/14 10:07:14;;;;;;;8.88;7.15;;;22.70;99.90;;;;;;4995657;28;20041;-65
2022/11/14 10:10:56;;;;;;;8.48;6.85;;;24.50;97.80;;;;;;5019170;28;20100;-65
2022/11/14 10:14:40;;;;;;;8.23;6.10;;;25.40;95.90;;;;;;5018280;28;20049;-66
2022/11/14 10:18:22;;;;;;;8.20;6.35;;;25.70;94.50;;;;;;5025364;28;20049;-67
2022/11/14 10:22:25;;;;;;;;;;;28.60;93.90;;;;;;5018391;28;20044;-66
2022/11/14 10:25:56;;;;;;;5.13;4.57;;;32.50;88.20;;;;;;5017272;28;19916;-67
2022/11/14 10:29:33;;;;;;;4.60;3.75;;;36.00;80.10;;;;;;5014089;28;20040;-67
2022/11/14 10:33:21;;;;;;;4.85;4.35;;;36.20;73.40;;;;;;5012169;28;20049;-66
2022/11/14 10:37:03;;;;;;;5.90;4.35;;;36.10;72.20;;;;;;5014059;28;20041;-66
2022/11/14 10:40:43;;;;;;;4.10;3.42;;;37.30;69.90;;;;;;5010986;28;20037;-67
2022/11/14 10:44:14;;;;;;;2.58;2.35;;;36.80;68.10;;;;;;5027287;28;20049;-67
2022/11/14 10:47:42;;;;;;;3.47;2.80;;;37.00;67.50;;;;;;5007661;28;20113;-67
2022/11/14 10:51:28;;;;;;;2.90;2.50;;;38.00;66.10;;;;;;5021754;28;20065;-66
2022/11/14 10:55:05;;;;;;;2.20;2.00;;;38.10;65.00;;;;;;5018965;28;20045;-67
2022/11/14 10:58:28;;;;;;;2.35;2.03;;;39.10;63.00;;;;;;5019702;28;20515;-68
2022/11/14 11:01:52;;;;;;;3.75;2.70;;;38.80;62.20;;;;;;5013796;28;20040;-67
2022/11/14 11:05:22;;;;;;;3.50;3.10;;;38.20;62.60;;;;;;5026983;28;20038;-66
2022/11/14 11:12:35;;;;;;;5.45;3.10;;;34.60;65.70;;;;;;5006241;28;20429;-67
2022/11/14 11:15:59;;;;;;;3.75;2.60;;;34.40;66.00;;;;;;5023311;28;20044;-67
2022/11/14 11:19:25;;;;;;;3.70;2.85;;;34.50;64.70;;;;;;5026120;28;20052;-67
2022/11/14 11:23:00;;;;;;;3.30;3.00;;;34.70;66.00;;;;;;5007902;28;20052;-66
2022/11/14 11:26:27;;;;;;;4.43;2.70;;;34.40;64.20;;;;;;5010541;28;20045;-66
2022/11/14 11:30:21;;;;;;;2.25;2.05;;;34.00;65.80;;;;;;5011470;28;20041;-67
2022/11/14 11:33:44;;;;;;;2.63;1.80;;;33.40;64.60;;;;;;5011812;28;20037;-66
2022/11/14 11:37:25;;;;;;;5.45;2.95;;;33.80;66.10;;;;;;5018216;28;20037;-66
2022/11/14 11:40:51;;;;;;;;;;;34.60;65.20;;;;;;5016107;28;20056;-67
2022/11/14 11:44:17;;;;;;;2.85;2.45;;;35.30;64.20;;;;;;5017969;28;19916;-67
2022/11/14 11:47:41;;;;;;;2.83;2.53;;;35.40;64.20;;;;;;5017077;28;20037;-66
2022/11/14 11:51:11;;;;;;;2.05;1.77;;;35.20;64.40;;;;;;5020345;28;20041;-66
2022/11/14 11:54:43;;;;;;;3.00;1.85;;;35.10;63.70;;;;;;5018728;28;20041;-66
2022/11/14 11:58:26;;;;;;;2.35;1.85;;;34.10;64.60;;;;;;5019413;28;20355;-66
2022/11/14 12:01:50;;;;;;;1.92;1.67;;;34.50;64.30;;;;;;5012230;28;20053;-66
2022/11/14 12:05:17;;;;;;;2.47;1.67;;;35.60;63.40;;;;;;5019996;28;20519;-66
2022/11/14 12:09:00;;;;;;;2.22;2.03;;;36.00;62.50;;;;;;5015519;28;20045;-66
2022/11/14 12:12:44;;;;;;;2.58;1.60;;;35.10;62.90;;;;;;5015566;28;20052;-66
2022/11/14 12:16:17;;;;;;;2.15;1.73;;;33.40;62.90;;;;;;5023461;28;20033;-66
2022/11/14 12:20:12;;;;;;;3.67;1.50;;;33.70;63.20;;;;;;5020236;28;20041;-66
2022/11/14 12:23:57;;;;;;;2.63;1.70;;;33.90;61.30;;;;;;5008508;28;20600;-66
2022/11/14 12:27:59;;;;;;;2.17;1.80;;;32.30;64.70;;;;;;5019151;28;20045;-66
2022/11/14 12:31:31;;;;;;;6.45;2.00;;;32.10;65.00;;;;;;5004018;28;20048;-66
2022/11/14 12:34:54;;;;;;;2.80;2.40;;;31.90;65.80;;;;;;5022844;28;20040;-66
2022/11/14 12:38:18;;;;;;;3.33;2.00;;;31.90;65.00;;;;;;5020264;28;20045;-66
2022/11/14 12:41:40;;;;;;;3.90;2.10;;;31.40;65.70;;;;;;5015815;28;20033;-65
2022/11/14 12:45:39;;;;;;;2.67;2.22;;;31.10;67.30;;;;;;5011438;28;20044;-66
2022/11/14 12:49:40;;;;;;;4.75;1.98;;;32.60;65.40;;;;;;5016820;28;20045;-66
2022/11/14 12:53:35;;;;;;;3.95;2.15;;;31.10;65.60;;;;;;5006430;28;20248;-66
2022/11/14 12:57:02;;;;;;;1.98;1.80;;;28.30;69.00;;;;;;5006769;28;20041;-66
2022/11/14 13:00:26;;;;;;;2.05;1.88;;;28.60;70.30;;;;;;5009109;28;20045;-66
2022/11/14 13:04:17;;;;;;;2.38;1.95;;;30.70;67.40;;;;;;5017801;28;20507;-66
2022/11/14 13:08:18;;;;;;;3.25;1.90;;;30.20;66.10;;;;;;5011978;28;20037;-66
2022/11/14 13:23:02;;;;;;;3.55;1.95;;;33.00;65.50;;;;;;5015714;28;20040;-66
2022/11/14 13:26:30;;;;;;;2.00;1.80;;;31.80;65.00;;;;;;5013617;28;20044;-65
2022/11/14 13:29:53;;;;;;;2.15;1.90;;;30.30;67.30;;;;;;5008347;28;20392;-66
2022/11/14 13:33:43;;;;;;;3.65;2.35;;;30.50;67.80;;;;;;5011315;28;20813;-66
2022/11/14 13:37:10;;;;;;;2.67;2.08;;;31.00;67.10;;;;;;5012989;28;20369;-66
2022/11/14 13:40:52;;;;;;;3.25;2.72;;;30.00;67.40;;;;;;5010859;28;20428;-65
2022/11/14 13:44:29;;;;;;;;;;;28.50;69.60;;;;;;5013260;28;20097;-67
2022/11/14 13:48:13;;;;;;;3.38;2.42;;;29.20;68.90;;;;;;5018018;28;20267;-67
2022/11/14 13:51:38;;;;;;;2.88;2.10;;;30.00;68.60;;;;;;5016126;28;20045;-67
2022/11/14 13:55:01;;;;;;;2.78;2.38;;;30.00;67.80;;;;;;5022330;28;20499;-66
2022/11/14 13:58:33;;;;;;;3.25;2.40;;;29.70;68.80;;;;;;5020504;28;20487;-67
2022/11/14 14:02:01;;;;;;;3.17;2.30;;;28.20;68.80;;;;;;5013899;28;20057;-66
2022/11/14 14:05:34;;;;;;;3.47;2.58;;;27.40;71.40;;;;;;5028093;28;20053;-65
2022/11/14 14:09:12;;;;;;;2.95;2.13;;;26.80;72.10;;;;;;5022854;28;20041;-65
2022/11/14 14:12:45;;;;;;;3.08;2.58;;;25.30;73.70;;;;;;5025806;28;20036;-66
2022/11/14 14:16:37;;;;;;;2.95;2.63;;;25.30;74.50;;;;;;5018615;28;20053;-65
2022/11/14 14:20:28;;;;;;;4.40;2.70;;;24.50;75.20;;;;;;5014123;28;20044;-65
2022/11/14 14:24:04;;;;;;;8.38;2.85;;;23.90;77.80;;;;;;5010165;28;20037;-65
2022/11/14 14:27:51;;;;;;;2.90;2.45;;;24.20;77.60;;;;;;5014499;28;20036;-66
2022/11/14 14:31:18;;;;;;;3.22;2.70;;;23.40;78.00;;;;;;5021109;28;20044;-65
2022/11/14 14:34:41;;;;;;;3.75;2.65;;;22.60;80.10;;;;;;5022740;28;20059;-66
2022/11/14 14:38:20;;;;;;;4.53;2.70;;;22.70;80.50;;;;;;5022441;28;20038;-67
2022/11/14 14:41:43;;;;;;;3.30;3.00;;;23.40;79.00;;;;;;5016974;28;20036;-66
2022/11/14 14:45:15;;;;;;;6.70;3.20;;;23.90;78.30;;;;;;5023426;28;20492;-66
2022/11/14 14:48:41;;;;;;;5.35;2.40;;;24.20;77.80;;;;;;5018024;28;20033;-66
2022/11/14 14:52:26;;;;;;;2.90;2.47;;;24.00;77.60;;;;;;5024252;28;20040;-67
2022/11/14 14:55:57;;;;;;;4.25;3.17;;;24.00;77.90;;;;;;5021663;28;20057;-66
2022/11/14 14:59:23;;;;;;;4.43;2.60;;;23.80;78.20;;;;;;5028881;28;20041;-67
2022/11/14 15:02:46;;;;;;;3.30;2.80;;;23.50;79.00;;;;;;5017883;28;20056;-66
2022/11/14 15:06:33;;;;;;;4.32;3.00;;;23.00;80.00;;;;;;5015882;28;20041;-67
2022/11/14 15:09:59;;;;;;;4.57;3.20;;;22.40;81.20;;;;;;5027595;28;20037;-66
2022/11/14 15:13:24;;;;;;;5.45;3.05;;;21.60;82.80;;;;;;5033494;28;20053;-67
2022/11/14 15:16:49;;;;;;;3.90;3.42;;;21.00;84.10;;;;;;5018324;28;20052;-66
2022/11/14 15:20:27;;;;;;;4.63;3.60;;;20.70;85.20;;;;;;5016470;28;20392;-66
2022/11/14 15:24:18;;;;;;;8.68;3.63;;;20.20;86.70;;;;;;5016162;28;20044;-66
2022/11/14 15:27:52;;;;;;;5.22;4.05;;;19.50;87.90;;;;;;5002049;28;20516;-66
2022/11/14 15:31:20;;;;;;;6.80;4.25;;;18.70;90.30;;;;;;5021747;28;20393;-66
2022/11/14 15:35:06;;;;;;;9.40;4.38;;;18.10;91.30;;;;;;5014300;28;20037;-64
2022/11/14 15:38:30;;;;;;;7.43;5.20;;;17.30;92.60;;;;;;5011373;28;20049;-66
2022/11/14 15:42:23;;;;;;;6.78;4.63;;;16.40;94.20;;;;;;4995926;28;20066;-66
2022/11/14 15:45:45;;;;;;;6.65;5.45;;;15.60;96.10;;;;;;5017805;28;20045;-66
2022/11/14 15:49:25;;;;;;;8.13;5.63;;;15.10;98.60;;;;;;5013077;28;20044;-66
2022/11/14 15:52:54;;;;;;;9.73;7.13;;;14.70;99.90;;;;;;5016345;28;20041;-66
2022/11/14 15:56:17;;;;;;;19.58;11.98;;;14.40;99.90;;;;;;5022782;28;20488;-66
2022/11/14 15:59:41;;;;;;;20.45;11.77;;;14.20;99.90;;;;;;5016858;28;20389;-66
2022/11/14 16:03:11;;;;;;;20.85;12.02;;;13.90;99.90;;;;;;5017277;28;20049;-66
2022/11/14 16:06:33;;;;;;;14.95;8.52;;;13.70;99.90;;;;;;5012696;28;20053;-66
2022/11/14 16:09:56;;;;;;;12.52;7.55;;;13.60;99.90;;;;;;5015315;28;20385;-66
2022/11/14 16:13:19;;;;;;;7.72;6.18;;;13.40;99.90;;;;;;5013814;28;20045;-66
2022/11/14 16:16:43;;;;;;;9.40;6.55;;;13.20;99.90;;;;;;5004066;28;20044;-66
2022/11/14 16:20:16;;;;;;;17.13;9.98;;;13.10;99.90;;;;;;5009785;28;20503;-66
2022/11/14 16:23:39;;;;;;;14.63;9.50;;;12.90;99.90;;;;;;5004506;28;20048;-66
2022/11/14 16:27:02;;;;;;;;;;;12.80;99.90;;;;;;5012910;28;20393;-66
2022/11/14 16:30:25;;;;;;;;;;;12.70;99.90;;;;;;5007700;28;20588;-66
2022/11/14 16:33:47;;;;;;;19.00;12.95;;;12.60;99.90;;;;;;5015706;28;19920;-66
2022/11/14 16:37:13;;;;;;;18.50;11.25;;;12.50;99.90;;;;;;5019483;28;22180;-66
2022/11/14 16:40:43;;;;;;;12.80;8.70;;;12.40;99.90;;;;;;5020469;28;20045;-66
2022/11/14 16:44:10;;;;;;;17.23;10.20;;;12.40;99.90;;;;;;5019202;28;20057;-66
2022/11/14 16:47:33;;;;;;;19.45;12.32;;;12.30;99.90;;;;;;5016093;28;20041;-66
2022/11/14 16:51:04;;;;;;;14.07;9.85;;;12.20;99.90;;;;;;5007481;28;20045;-65
2022/11/14 16:54:26;;;;;;;12.98;8.40;;;12.10;99.90;;;;;;5013064;28;20049;-66
2022/11/14 16:57:49;;;;;;;15.30;9.52;;;12.10;99.90;;;;;;5016069;28;20397;-66
2022/11/14 17:01:16;;;;;;;11.23;8.20;;;12.00;99.90;;;;;;5014040;28;20029;-65
2022/11/14 17:04:41;;;;;;;28.35;18.25;;;12.00;99.90;;;;;;5003219;28;20054;-65
2022/11/14 17:08:03;;;;;;;13.80;10.15;;;12.00;99.90;;;;;;5018940;28;20113;-66
2022/11/14 17:11:28;;;;;;;13.40;8.82;;;11.80;99.90;;;;;;5031339;28;20049;-65
2022/11/14 17:14:50;;;;;;;12.60;8.88;;;11.60;99.90;;;;;;5031793;28;20048;-65
2022/11/14 17:18:13;;;;;;;12.65;8.10;;;11.50;99.90;;;;;;5031660;28;20125;-65
2022/11/14 17:21:36;;;;;;;13.05;9.10;;;11.40;99.90;;;;;;5031630;28;20048;-65
2022/11/14 17:24:58;;;;;;;13.48;8.95;;;11.30;99.90;;;;;;5031286;28;20044;-65
2022/11/14 17:28:21;;;;;;;13.13;8.88;;;11.30;99.90;;;;;;5031836;28;20044;-65
2022/11/14 17:31:44;;;;;;;14.40;9.52;;;11.30;99.90;;;;;;5031587;28;20056;-66
2022/11/14 17:35:07;;;;;;;18.17;10.82;;;11.30;99.90;;;;;;5031530;28;20048;-66
2022/11/14 17:38:34;;;;;;;13.13;8.32;;;11.30;99.90;;;;;;5031193;28;20040;-65
2022/11/14 17:41:58;;;;;;;21.02;12.15;;;11.20;99.90;;;;;;5031663;28;20052;-66
2022/11/14 17:45:20;;;;;;;17.60;9.77;;;11.10;99.90;;;;;;5031543;28;20393;-66
2022/11/14 17:48:43;;;;;;;16.80;10.27;;;11.00;99.90;;;;;;5030643;28;20060;-66
2022/11/14 17:52:06;;;;;;;13.50;9.88;;;10.90;99.90;;;;;;5031484;28;20044;-66
2022/11/14 17:55:28;;;;;;;;;;;10.80;99.90;;;;;;5031520;28;20045;-65
2022/11/14 17:58:52;;;;;;;16.20;9.90;;;10.70;99.90;;;;;;5031272;28;19920;-65
2022/11/14 18:02:17;;;;;;;34.33;18.85;;;10.70;99.90;;;;;;5031208;28;20044;-66
2022/11/14 18:05:40;;;;;;;18.40;11.68;;;10.60;99.90;;;;;;5030943;28;20508;-66
2022/11/14 18:09:05;;;;;;;49.40;26.55;;;10.50;99.90;;;;;;5031051;28;20422;-66